createdAt,value
2019-04-20T00:00:14.516Z,87.2
2019-04-20T00:05:15.180Z,88.3
2019-04-20T00:10:22.507Z,86.8
2019-04-20T00:15:21.928Z,86.6
2019-04-20T00:20:32.092Z,87
2019-04-20T00:25:59.036Z,87.6
2019-04-20T00:31:29.491Z,87
2019-04-20T00:36:29.199Z,87.4
2019-04-20T00:41:29.589Z,87.8
2019-04-20T00:47:00.675Z,87.7
2019-04-20T00:52:46.621Z,87.6
2019-04-20T00:57:55.172Z,87
2019-04-20T01:03:33.691Z,87.4
2019-04-20T01:08:29.824Z,87.4
2019-04-20T01:13:31.751Z,87.8
2019-04-20T01:18:30.704Z,87.4
2019-04-20T01:23:47.920Z,88.7
2019-04-20T01:29:19.112Z,87.8
2019-04-20T01:34:44.953Z,87.3
2019-04-20T01:39:57.190Z,87.6
2019-04-20T01:45:00.158Z,88.1
2019-04-20T01:50:13.289Z,87.8
2019-04-20T01:56:00.959Z,88.1
2019-04-20T02:01:09.057Z,87.8
2019-04-20T02:06:18.660Z,87.8
2019-04-20T02:11:32.648Z,87.4
2019-04-20T02:16:45.783Z,88.2
2019-04-20T02:22:15.545Z,88.8
2019-04-20T02:27:32.752Z,88.5
2019-04-20T02:39:50.677Z,87.6
2019-04-20T02:46:05.781Z,87.4
2019-04-20T02:52:20.720Z,87.6
2019-04-20T02:58:22.663Z,87.6
2019-04-20T03:03:43.160Z,87.9
2019-04-20T03:09:31.378Z,88.8
2019-04-20T03:15:07.039Z,88.4
2019-04-20T03:21:05.240Z,88.3
2019-04-20T03:26:40.039Z,88.5
2019-04-20T03:33:11.398Z,88.4
2019-04-20T03:38:57.157Z,88.1
2019-04-20T03:44:06.398Z,87.9
2019-04-20T03:49:59.404Z,88.9
2019-04-20T03:55:35.323Z,88.5
2019-04-20T04:01:09.887Z,88
2019-04-20T04:06:33.934Z,88.1
2019-04-20T04:12:05.492Z,88.1
2019-04-20T04:17:07.414Z,88.3
2019-04-20T04:22:37.559Z,88.9
2019-04-20T04:28:13.645Z,87.7
2019-04-20T04:34:02.192Z,87.8
2019-04-20T04:39:52.698Z,87.2
2019-04-20T04:45:06.131Z,86.1
2019-04-20T04:50:18.219Z,87.3
2019-04-20T04:55:40.106Z,87.1
2019-04-20T05:00:40.911Z,87.2
2019-04-20T05:06:26.196Z,86.9
2019-04-20T05:11:26.050Z,87
2019-04-20T05:17:01.404Z,85.4
2019-04-20T05:22:45.302Z,84.2
2019-04-20T05:28:20.105Z,85.7
2019-04-20T05:33:56.897Z,86.2
2019-04-20T05:39:49.906Z,85.1
2019-04-20T05:45:28.207Z,83.1
2019-04-20T05:51:07.110Z,83.9
2019-04-20T05:57:14.236Z,82.3
2019-04-20T06:02:57.612Z,80.5
2019-04-20T06:08:59.016Z,79.5
2019-04-20T06:14:17.071Z,80.2
2019-04-20T06:19:59.867Z,80.6
2019-04-20T06:26:18.994Z,77.7
2019-04-20T06:32:02.176Z,75.3
2019-04-20T06:38:09.785Z,71.1
2019-04-20T06:44:00.427Z,70.9
2019-04-20T06:50:01.113Z,66.7
2019-04-20T06:55:48.255Z,65
2019-04-20T07:01:41.687Z,67.5
2019-04-20T07:07:29.202Z,57
2019-04-20T07:13:05.999Z,58.2
2019-04-20T07:19:00.623Z,60.9
2019-04-20T07:25:04.889Z,54.2
2019-04-20T07:30:50.132Z,49.9
2019-04-20T07:36:45.385Z,53.8
2019-04-20T07:42:40.400Z,46.8
2019-04-20T07:48:24.638Z,52.5
2019-04-20T07:54:09.949Z,47.7
2019-04-20T07:59:43.465Z,50.8
2019-04-20T08:05:18.925Z,42.4
2019-04-20T08:10:51.385Z,42.9
2019-04-20T08:17:13.645Z,43.7
2019-04-20T08:22:58.402Z,45.8
2019-04-20T08:27:57.307Z,43.3
2019-04-20T08:33:40.107Z,46.4
2019-04-20T08:45:34.433Z,47.2
2019-04-20T08:51:18.971Z,46.2
2019-04-20T08:56:41.428Z,43.2
2019-04-20T09:01:42.614Z,42.8
2019-04-20T09:07:08.224Z,40.1
2019-04-20T09:12:44.732Z,41.5
2019-04-20T09:17:57.232Z,42.5
2019-04-20T09:23:31.266Z,43.1
2019-04-20T09:34:24.483Z,40.7
2019-04-20T09:39:44.808Z,38.5
2019-04-20T09:45:04.175Z,37.3
2019-04-20T09:50:40.737Z,40.3
2019-04-20T09:56:22.972Z,39.7
2019-04-20T10:01:38.027Z,36.9
2019-04-20T10:06:39.291Z,39.7
2019-04-20T10:11:45.733Z,40
2019-04-20T10:16:45.861Z,35.3
2019-04-20T10:21:46.254Z,40.8
2019-04-20T10:26:46.363Z,40.1
2019-04-20T10:31:56.958Z,37.8
2019-04-20T10:36:57.963Z,39.7
2019-04-20T10:42:04.233Z,34.7
2019-04-20T10:47:01.422Z,38.3
2019-04-20T10:52:02.166Z,37.8
2019-04-20T10:57:01.894Z,40.7
2019-04-20T11:02:02.066Z,41.3
2019-04-20T11:07:01.143Z,38.9
2019-04-20T11:11:59.989Z,38.5
2019-04-20T11:17:00.502Z,38.3
2019-04-20T11:21:59.391Z,39.7
2019-04-20T11:27:00.634Z,42.3
2019-04-20T11:32:01.326Z,41.3
2019-04-20T11:37:01.616Z,38.3
2019-04-20T11:42:01.786Z,38.9
2019-04-20T11:47:03.021Z,39.7
2019-04-20T11:52:03.497Z,37.5
2019-04-20T11:57:03.932Z,36
2019-04-20T12:02:07.713Z,36.8
2019-04-20T12:07:07.099Z,40.1
2019-04-20T12:12:29.900Z,38.4
2019-04-20T12:17:27.354Z,36.8
2019-04-20T12:22:28.484Z,35.2
2019-04-20T12:27:27.816Z,38.1
2019-04-20T12:32:42.778Z,36.2
2019-04-20T12:37:43.214Z,37.3
2019-04-20T12:42:44.333Z,37.3
2019-04-20T12:47:49.742Z,39.7
2019-04-20T12:52:50.525Z,36.8
2019-04-20T12:57:52.388Z,36.2
2019-04-20T13:02:51.963Z,36
2019-04-20T13:07:59.686Z,36.3
2019-04-20T13:12:58.765Z,35.6
2019-04-20T13:17:59.274Z,32.7
2019-04-20T13:23:03.895Z,32.8
2019-04-20T13:28:05.007Z,35.1
2019-04-20T13:33:07.671Z,34.5
2019-04-20T13:38:08.135Z,35
2019-04-20T13:43:09.644Z,36
2019-04-20T13:48:09.278Z,34.6
2019-04-20T13:53:09.895Z,34.5
2019-04-20T13:58:10.130Z,34.2
2019-04-20T14:03:11.245Z,36.8
2019-04-20T14:08:11.772Z,36.1
2019-04-20T14:13:20.086Z,38.1
2019-04-20T14:18:19.316Z,35.6
2019-04-20T14:23:19.147Z,34.7
2019-04-20T14:28:18.906Z,35.1
2019-04-20T14:33:19.190Z,35.1
2019-04-20T14:38:18.543Z,34.6
2019-04-20T14:43:19.645Z,36.4
2019-04-20T14:48:18.933Z,35.8
2019-04-20T14:53:18.143Z,36
2019-04-20T14:58:17.975Z,35.4
2019-04-20T15:03:17.572Z,33.5
2019-04-20T15:08:20.624Z,35.7
2019-04-20T15:13:20.385Z,35.9
2019-04-20T15:18:19.790Z,36
2019-04-20T15:23:19.702Z,35.9
2019-04-20T15:28:20.737Z,38.7
2019-04-20T15:33:21.494Z,36.3
2019-04-20T15:38:21.420Z,36.5
2019-04-20T15:43:27.825Z,36.3
2019-04-20T15:48:27.927Z,37.8
2019-04-20T15:53:27.352Z,40.2
2019-04-20T15:58:28.394Z,38
2019-04-20T16:03:27.869Z,38.3
2019-04-20T16:08:28.446Z,39
2019-04-20T16:13:41.856Z,38.3
2019-04-20T16:18:41.374Z,39.4
2019-04-20T16:23:41.075Z,39.2
2019-04-20T16:28:42.019Z,40
2019-04-20T16:33:42.491Z,42
2019-04-20T16:38:43.485Z,43.6
2019-04-20T16:43:48.134Z,43.3
2019-04-20T16:48:48.100Z,43.4
2019-04-20T16:53:48.163Z,44
2019-04-20T16:58:54.454Z,43.8
2019-04-20T17:04:09.682Z,43.2
2019-04-20T17:09:12.002Z,46.3
2019-04-20T17:14:10.861Z,45.5
2019-04-20T17:19:10.220Z,48
2019-04-20T17:24:09.521Z,50.3
2019-04-20T17:29:12.110Z,53.1
2019-04-20T17:34:46.650Z,53.8
2019-04-20T17:40:39.488Z,57.5
2019-04-20T17:45:54.207Z,55.3
2019-04-20T17:51:47.150Z,59.3
2019-04-20T17:56:48.601Z,59.5
2019-04-20T18:02:17.339Z,60.9
2019-04-20T18:08:03.695Z,61.6
2019-04-20T18:13:20.649Z,60.9
2019-04-20T18:18:51.405Z,62.1
2019-04-20T18:23:51.924Z,62
2019-04-20T18:29:36.654Z,63.6
2019-04-20T18:34:36.549Z,61.6
2019-04-20T18:39:53.268Z,63.5
2019-04-20T18:45:29.442Z,64.9
2019-04-20T18:50:40.696Z,64.8
2019-04-20T18:55:54.104Z,65.5
2019-04-20T19:00:55.458Z,64.6
2019-04-20T19:05:56.055Z,66.3
2019-04-20T19:11:09.676Z,66.5
2019-04-20T19:16:30.107Z,65.4
2019-04-20T19:21:29.280Z,66.1
2019-04-20T19:26:30.336Z,67.9
2019-04-20T19:32:07.164Z,67.9
2019-04-20T19:37:25.892Z,68.6
2019-04-20T19:42:58.829Z,67.5
2019-04-20T19:48:27.509Z,68.8
2019-04-20T19:54:06.133Z,69.4
2019-04-20T19:59:31.460Z,68.5
2019-04-20T20:04:44.316Z,69.8
2019-04-20T20:09:58.159Z,70.4
2019-04-20T20:14:59.393Z,71.5
2019-04-20T20:20:59.148Z,69.6
2019-04-20T20:26:00.727Z,70.9
2019-04-20T20:31:27.933Z,70
2019-04-20T20:36:51.383Z,71
2019-04-20T20:42:18.678Z,70.3
2019-04-20T20:48:08.945Z,71.3
2019-04-20T20:53:24.356Z,71.2
2019-04-20T20:58:59.127Z,71.7
2019-04-20T21:03:58.397Z,72.6
2019-04-20T21:09:01.984Z,71.3
2019-04-20T21:14:01.609Z,71.9
2019-04-20T21:19:37.767Z,73.6
2019-04-20T21:24:45.352Z,74
2019-04-20T21:29:56.141Z,73.9
2019-04-20T21:35:06.864Z,72.2
2019-04-20T21:40:26.645Z,73.2
2019-04-20T21:45:37.186Z,73.2
2019-04-20T21:51:13.260Z,74.4
2019-04-20T21:56:12.519Z,72.5
2019-04-20T22:01:32.205Z,73.4
2019-04-20T22:06:30.236Z,75.1
2019-04-20T22:11:29.800Z,74.2
2019-04-20T22:16:42.396Z,74.1
2019-04-20T22:22:05.341Z,73.7
2019-04-20T22:27:20.848Z,74.5
2019-04-20T22:32:24.008Z,73.6
2019-04-20T22:37:30.470Z,75.1
2019-04-20T22:42:39.972Z,75.7
2019-04-20T22:47:42.550Z,73.7
2019-04-20T22:53:12.004Z,73.5
2019-04-20T23:03:30.802Z,75.1
2019-04-20T23:08:30.900Z,73.9
2019-04-20T23:13:42.879Z,76.6
2019-04-20T23:18:40.767Z,76.2
2019-04-20T23:23:41.780Z,76.9
2019-04-20T23:28:52.464Z,77.2
2019-04-20T23:33:54.069Z,77.3
2019-04-20T23:39:01.559Z,77.8
2019-04-20T23:44:12.520Z,77
2019-04-20T23:49:23.796Z,77.5
2019-04-20T23:54:31.793Z,76.4
2019-04-20T23:59:43.101Z,77.1
